createdAt,value
2017-09-03T00:01:52.745Z,17.90
2017-09-03T00:04:20.557Z,17.90
2017-09-03T00:06:48.370Z,17.70
2017-09-03T00:09:16.146Z,17.70
2017-09-03T00:11:43.859Z,17.60
2017-09-03T00:14:11.640Z,17.30
2017-09-03T00:19:13.309Z,17.40
2017-09-03T00:21:41.040Z,17.70
2017-09-03T00:24:08.833Z,18.20
2017-09-03T00:26:36.652Z,17.60
2017-09-03T00:29:04.404Z,17.40
2017-09-03T00:31:32.810Z,17.60
2017-09-03T00:34:00.541Z,17.50
2017-09-03T00:36:28.255Z,17.60
2017-09-03T00:38:56.021Z,17.40
2017-09-03T00:41:23.803Z,17.80
2017-09-03T00:43:51.599Z,17.90
2017-09-03T00:46:19.303Z,17.50
2017-09-03T00:48:47.151Z,17.60
2017-09-03T00:51:14.879Z,17.70
2017-09-03T00:53:42.588Z,17.80
2017-09-03T00:56:10.361Z,17.80
2017-09-03T00:58:38.152Z,17.70
2017-09-03T01:01:05.875Z,17.70
2017-09-03T01:03:33.655Z,17.70
2017-09-03T01:06:01.361Z,17.40
2017-09-03T01:08:29.159Z,17.40
2017-09-03T01:10:56.898Z,17.30
2017-09-03T01:13:25.066Z,17.40
2017-09-03T01:15:52.825Z,17.20
2017-09-03T01:18:20.632Z,17.10
2017-09-03T01:20:48.418Z,17.20
2017-09-03T01:23:16.128Z,17.50
2017-09-03T01:25:43.933Z,17.60
2017-09-03T01:28:11.715Z,17.70
2017-09-03T01:30:39.481Z,17.60
2017-09-03T01:33:07.329Z,17.40
2017-09-03T01:35:35.068Z,17.30
2017-09-03T01:38:02.847Z,17.30
2017-09-03T01:40:30.702Z,17.50
2017-09-03T01:42:58.407Z,17.50
2017-09-03T01:45:26.167Z,17.50
2017-09-03T01:47:53.967Z,17.30
2017-09-03T01:50:21.679Z,17.30
2017-09-03T01:52:49.391Z,17.40
2017-09-03T01:55:17.118Z,17.40
2017-09-03T01:57:44.843Z,17.30
2017-09-03T02:00:12.571Z,17.10
2017-09-03T02:02:40.382Z,17.00
2017-09-03T02:05:08.179Z,17.00
2017-09-03T02:07:35.891Z,16.90
2017-09-03T02:10:03.673Z,17.20
2017-09-03T02:12:31.387Z,17.10
2017-09-03T02:14:59.188Z,17.20
2017-09-03T02:17:26.899Z,17.00
2017-09-03T02:19:54.678Z,16.80
2017-09-03T02:22:22.400Z,17.30
2017-09-03T02:24:50.127Z,17.10
2017-09-03T02:27:17.837Z,17.00
2017-09-03T02:29:45.599Z,17.20
2017-09-03T02:32:13.711Z,17.00
2017-09-03T02:34:41.441Z,17.00
2017-09-03T02:37:09.164Z,16.90
2017-09-03T02:39:36.944Z,17.10
2017-09-03T02:42:04.708Z,17.00
2017-09-03T02:44:32.492Z,16.90
2017-09-03T02:47:00.252Z,17.10
2017-09-03T02:49:28.029Z,17.00
2017-09-03T02:51:55.757Z,17.10
2017-09-03T02:54:23.500Z,17.10
2017-09-03T02:56:51.222Z,17.00
2017-09-03T02:59:18.933Z,16.90
2017-09-03T03:01:46.720Z,16.80
2017-09-03T03:04:14.481Z,17.20
2017-09-03T03:06:42.253Z,17.30
2017-09-03T03:09:10.001Z,17.20
2017-09-03T03:11:37.805Z,17.10
2017-09-03T03:14:05.587Z,17.10
2017-09-03T03:16:33.364Z,17.20
2017-09-03T03:19:01.096Z,17.20
2017-09-03T03:21:28.886Z,17.10
2017-09-03T03:23:56.612Z,17.10
2017-09-03T03:26:24.379Z,17.10
2017-09-03T03:28:52.119Z,17.10
2017-09-03T03:31:19.998Z,17.20
2017-09-03T03:33:47.776Z,17.30
2017-09-03T03:36:15.519Z,17.40
2017-09-03T03:38:43.236Z,17.30
2017-09-03T03:41:10.945Z,17.40
2017-09-03T03:43:38.749Z,17.30
2017-09-03T03:46:06.474Z,17.30
2017-09-03T03:48:34.206Z,17.30
2017-09-03T03:51:01.972Z,17.20
2017-09-03T03:53:29.760Z,17.20
2017-09-03T03:55:57.531Z,17.50
2017-09-03T03:58:25.248Z,17.50
2017-09-03T04:00:52.979Z,17.40
2017-09-03T04:03:20.754Z,17.40
2017-09-03T04:05:48.525Z,17.30
2017-09-03T04:08:16.231Z,17.20
2017-09-03T04:10:43.944Z,17.30
2017-09-03T04:13:11.656Z,17.10
2017-09-03T04:15:39.483Z,17.30
2017-09-03T04:18:07.246Z,17.30
2017-09-03T04:20:34.964Z,17.40
2017-09-03T04:23:02.679Z,17.40
2017-09-03T04:25:30.398Z,17.30
2017-09-03T04:27:58.105Z,17.30
2017-09-03T04:30:25.828Z,17.30
2017-09-03T04:32:53.599Z,17.30
2017-09-03T04:35:21.308Z,17.30
2017-09-03T04:37:49.042Z,17.20
2017-09-03T04:40:16.763Z,17.20
2017-09-03T04:42:44.468Z,17.00
2017-09-03T04:45:12.196Z,17.10
2017-09-03T04:47:39.925Z,17.00
2017-09-03T04:50:07.643Z,17.10
2017-09-03T04:52:35.498Z,17.20
2017-09-03T04:55:03.215Z,17.30
2017-09-03T04:57:30.919Z,17.50
2017-09-03T04:59:58.659Z,17.40
2017-09-03T05:02:26.429Z,17.20
2017-09-03T05:04:54.220Z,17.20
2017-09-03T05:07:21.968Z,17.00
2017-09-03T05:09:49.732Z,16.80
2017-09-03T05:12:17.453Z,16.80
2017-09-03T05:14:45.229Z,16.80
2017-09-03T05:17:13.001Z,16.70
2017-09-03T05:19:40.773Z,16.70
2017-09-03T05:22:08.562Z,16.90
2017-09-03T05:24:36.352Z,17.00
2017-09-03T05:27:04.124Z,17.00
2017-09-03T05:29:31.928Z,17.00
2017-09-03T05:31:59.714Z,17.10
2017-09-03T05:34:27.427Z,16.90
2017-09-03T05:36:55.280Z,17.00
2017-09-03T05:39:22.991Z,17.10
2017-09-03T05:41:50.763Z,17.20
2017-09-03T05:44:18.555Z,17.20
2017-09-03T05:46:46.273Z,17.30
2017-09-03T05:49:13.988Z,17.20
2017-09-03T05:51:41.730Z,17.30
2017-09-03T05:54:09.500Z,17.40
2017-09-03T05:56:37.276Z,17.60
2017-09-03T05:59:05.052Z,17.50
2017-09-03T06:01:32.828Z,17.60
2017-09-03T06:04:00.540Z,17.50
2017-09-03T06:06:28.325Z,17.60
2017-09-03T06:08:56.106Z,17.70
2017-09-03T06:11:23.816Z,17.70
2017-09-03T06:13:51.522Z,17.80
2017-09-03T06:16:19.249Z,18.00
2017-09-03T06:18:47.324Z,18.00
2017-09-03T06:21:15.057Z,18.10
2017-09-03T06:23:42.842Z,18.10
2017-09-03T06:26:11.378Z,18.10
2017-09-03T06:28:39.092Z,18.10
2017-09-03T06:31:06.868Z,18.10
2017-09-03T06:33:34.635Z,18.00
2017-09-03T06:36:02.429Z,18.00
2017-09-03T06:38:30.242Z,17.90
2017-09-03T06:40:58.020Z,18.10
2017-09-03T06:43:25.875Z,18.50
2017-09-03T06:45:53.628Z,18.50
2017-09-03T06:48:21.347Z,18.50
2017-09-03T06:50:49.618Z,18.40
2017-09-03T06:53:17.329Z,18.40
2017-09-03T06:55:45.120Z,18.40
2017-09-03T06:58:13.124Z,18.50
2017-09-03T07:00:40.830Z,18.40
2017-09-03T07:03:08.605Z,18.40
2017-09-03T07:05:36.474Z,18.40
2017-09-03T07:08:04.258Z,18.60
2017-09-03T07:10:32.899Z,18.70
2017-09-03T07:13:00.694Z,18.70
2017-09-03T07:15:28.418Z,18.80
2017-09-03T07:17:56.202Z,18.80
2017-09-03T07:20:24.094Z,18.90
2017-09-03T07:22:51.868Z,18.80
2017-09-03T07:25:19.603Z,18.80
2017-09-03T07:27:47.397Z,18.80
2017-09-03T07:30:15.157Z,18.80
2017-09-03T07:32:42.930Z,18.90
2017-09-03T07:35:10.677Z,19.00
2017-09-03T07:37:38.401Z,18.90
2017-09-03T07:40:06.140Z,18.90
2017-09-03T07:42:33.955Z,19.00
2017-09-03T07:45:01.724Z,18.90
2017-09-03T07:47:29.501Z,19.00
2017-09-03T07:49:57.232Z,19.00
2017-09-03T07:52:24.958Z,19.00
2017-09-03T07:54:52.736Z,19.10
2017-09-03T07:57:20.520Z,19.10
2017-09-03T07:59:48.302Z,19.50
2017-09-03T08:02:16.093Z,19.40
2017-09-03T08:04:43.980Z,19.40
2017-09-03T08:07:11.757Z,19.10
2017-09-03T08:09:39.465Z,19.20
2017-09-03T08:12:07.343Z,19.40
2017-09-03T08:14:35.287Z,19.50
2017-09-03T08:17:03.049Z,19.70
2017-09-03T08:19:30.834Z,19.60
2017-09-03T08:21:58.614Z,19.80
2017-09-03T08:24:26.361Z,19.90
2017-09-03T08:26:54.150Z,19.80
2017-09-03T08:29:21.935Z,19.70
2017-09-03T08:31:50.315Z,19.80
2017-09-03T08:34:18.344Z,20.20
2017-09-03T08:36:46.142Z,21.00
2017-09-03T08:39:13.883Z,20.30
2017-09-03T08:41:41.622Z,20.10
2017-09-03T08:44:09.425Z,20.40
2017-09-03T08:46:37.201Z,20.50
2017-09-03T08:49:05.078Z,20.40
2017-09-03T08:51:32.914Z,20.30
2017-09-03T08:54:00.692Z,20.30
2017-09-03T08:56:28.437Z,20.20
2017-09-03T08:58:57.746Z,20.40
2017-09-03T09:01:25.524Z,20.80
2017-09-03T09:03:53.249Z,21.20
2017-09-03T09:06:21.025Z,22.30
2017-09-03T09:08:48.795Z,22.00
2017-09-03T09:11:16.642Z,21.50
2017-09-03T09:13:44.361Z,21.50
2017-09-03T09:16:12.304Z,21.60
2017-09-03T09:18:40.225Z,21.40
2017-09-03T09:21:08.053Z,21.10
2017-09-03T09:23:35.849Z,21.30
2017-09-03T09:26:03.579Z,21.50
2017-09-03T09:28:31.386Z,21.50
2017-09-03T09:30:59.248Z,22.30
2017-09-03T09:33:26.974Z,22.00
2017-09-03T09:35:54.818Z,21.60
2017-09-03T09:38:22.738Z,21.70
2017-09-03T09:40:50.554Z,21.80
2017-09-03T09:43:18.338Z,21.90
2017-09-03T09:45:46.193Z,21.70
2017-09-03T09:48:14.005Z,21.60
2017-09-03T09:50:41.790Z,22.00
2017-09-03T09:53:09.589Z,22.20
2017-09-03T09:55:38.040Z,22.20
2017-09-03T09:58:05.809Z,22.30
2017-09-03T10:00:33.583Z,22.70
2017-09-03T10:03:01.368Z,22.60
2017-09-03T10:05:29.104Z,22.20
2017-09-03T10:07:57.042Z,22.10
2017-09-03T10:10:24.882Z,22.20
2017-09-03T10:12:52.705Z,22.40
2017-09-03T10:15:21.015Z,22.40
2017-09-03T10:17:48.834Z,22.10
2017-09-03T10:20:16.605Z,22.30
2017-09-03T10:22:44.468Z,21.90
2017-09-03T10:25:12.286Z,21.80
2017-09-03T10:27:41.419Z,21.90
2017-09-03T10:30:09.319Z,22.30
2017-09-03T10:32:37.157Z,22.40
2017-09-03T10:35:04.966Z,22.80
2017-09-03T10:37:32.749Z,22.80
2017-09-03T10:40:00.520Z,22.70
2017-09-03T10:42:28.355Z,22.60
2017-09-03T10:44:56.223Z,22.50
2017-09-03T10:47:25.212Z,22.70
2017-09-03T10:50:09.279Z,22.70
2017-09-03T10:52:37.757Z,22.60
2017-09-03T10:55:17.459Z,23.00
2017-09-03T10:57:47.313Z,22.80
2017-09-03T11:00:15.157Z,22.80
2017-09-03T11:02:42.949Z,22.70
2017-09-03T11:05:10.807Z,22.60
2017-09-03T11:07:38.769Z,22.60
2017-09-03T11:10:08.393Z,22.70
2017-09-03T11:12:36.816Z,22.40
2017-09-03T11:15:04.613Z,22.40
2017-09-03T11:17:32.434Z,22.50
2017-09-03T11:20:00.224Z,22.40
2017-09-03T11:22:27.987Z,22.90
2017-09-03T11:24:55.904Z,23.10
2017-09-03T11:27:23.750Z,22.60
2017-09-03T11:29:51.488Z,22.50
2017-09-03T11:32:19.256Z,22.40
2017-09-03T11:34:47.079Z,22.30
2017-09-03T11:37:14.894Z,22.30
2017-09-03T11:39:42.667Z,22.60
2017-09-03T11:42:10.557Z,22.80
2017-09-03T11:44:38.299Z,22.60
2017-09-03T11:47:06.111Z,22.40
2017-09-03T11:49:33.969Z,22.40
2017-09-03T11:52:01.716Z,22.30
2017-09-03T11:54:29.457Z,22.30
2017-09-03T11:56:57.309Z,22.20
2017-09-03T11:59:25.179Z,22.20
2017-09-03T12:01:52.942Z,22.20
2017-09-03T12:04:20.821Z,22.40
2017-09-03T12:06:48.565Z,22.40
2017-09-03T12:09:16.345Z,22.30
2017-09-03T12:11:44.169Z,22.50
2017-09-03T12:14:12.275Z,22.50
2017-09-03T12:22:04.165Z,23.10
2017-09-03T12:24:31.897Z,22.90
2017-09-03T12:26:59.709Z,22.90
2017-09-03T12:29:27.513Z,23.70
2017-09-03T12:31:55.292Z,23.50
2017-09-03T12:34:23.053Z,23.30
2017-09-03T12:36:50.847Z,23.10
2017-09-03T12:39:18.642Z,23.00
2017-09-03T12:41:46.450Z,23.30
2017-09-03T12:44:14.244Z,23.70
2017-09-03T12:46:42.068Z,23.40
2017-09-03T12:49:09.845Z,23.20
2017-09-03T12:51:37.652Z,23.70
2017-09-03T12:54:05.505Z,23.50
2017-09-03T12:56:33.296Z,23.40
2017-09-03T12:59:01.115Z,23.50
2017-09-03T13:01:28.896Z,24.10
2017-09-03T13:03:56.643Z,23.90
2017-09-03T13:06:24.467Z,23.90
2017-09-03T13:08:52.274Z,24.10
2017-09-03T13:11:20.090Z,23.80
2017-09-03T13:13:47.806Z,23.60
2017-09-03T13:16:15.580Z,23.50
2017-09-03T13:18:43.289Z,23.50
2017-09-03T13:21:11.004Z,23.80
2017-09-03T13:23:38.776Z,24.10
2017-09-03T13:26:06.493Z,24.10
2017-09-03T13:28:34.270Z,24.40
2017-09-03T13:31:02.058Z,24.50
2017-09-03T13:33:29.858Z,24.80
2017-09-03T13:35:57.636Z,24.70
2017-09-03T13:38:25.359Z,24.60
2017-09-03T13:40:53.139Z,24.80
2017-09-03T13:43:20.911Z,24.80
2017-09-03T13:45:49.599Z,24.90
2017-09-03T13:48:17.313Z,24.90
2017-09-03T13:50:45.092Z,24.90
2017-09-03T13:53:12.808Z,24.90
2017-09-03T13:55:40.539Z,24.90
2017-09-03T13:58:09.802Z,24.90
2017-09-03T14:00:37.677Z,24.80
2017-09-03T14:03:05.409Z,24.80
2017-09-03T14:05:33.185Z,24.80
2017-09-03T14:08:00.913Z,25.00
2017-09-03T14:10:28.637Z,25.30
2017-09-03T14:13:14.500Z,25.50
2017-09-03T14:15:42.214Z,25.70
2017-09-03T14:18:09.945Z,25.40
2017-09-03T14:20:37.844Z,25.40
2017-09-03T14:23:05.620Z,25.60
2017-09-03T14:25:33.397Z,25.80
2017-09-03T14:28:01.553Z,26.00
2017-09-03T14:30:29.271Z,25.90
2017-09-03T14:32:57.080Z,25.80
2017-09-03T14:35:24.873Z,25.60
2017-09-03T14:37:52.624Z,25.50
2017-09-03T14:40:20.434Z,25.30
2017-09-03T14:42:48.235Z,25.40
2017-09-03T14:45:16.050Z,25.40
2017-09-03T14:47:43.819Z,25.60
2017-09-03T14:50:11.593Z,25.50
2017-09-03T14:52:39.315Z,25.60
2017-09-03T14:55:07.040Z,26.10
2017-09-03T14:57:40.603Z,26.00
2017-09-03T15:00:08.314Z,25.70
2017-09-03T15:02:36.097Z,25.40
2017-09-03T15:05:03.956Z,25.50
2017-09-03T15:07:31.774Z,25.40
2017-09-03T15:09:59.491Z,25.30
2017-09-03T15:12:27.401Z,25.60
2017-09-03T15:14:55.112Z,25.80
2017-09-03T15:17:22.878Z,26.50
2017-09-03T15:19:50.622Z,26.30
2017-09-03T15:22:18.332Z,26.20
2017-09-03T15:24:46.099Z,26.10
2017-09-03T15:27:13.867Z,26.30
2017-09-03T15:29:41.617Z,26.50
2017-09-03T15:32:09.359Z,26.70
2017-09-03T15:34:37.105Z,26.20
2017-09-03T15:37:04.900Z,25.90
2017-09-03T15:39:33.358Z,25.90
2017-09-03T15:42:01.264Z,25.80
2017-09-03T15:44:29.048Z,26.10
2017-09-03T15:46:56.777Z,26.50
2017-09-03T15:49:24.576Z,26.60
2017-09-03T15:51:53.366Z,26.80
2017-09-03T15:54:21.101Z,26.80
2017-09-03T15:56:48.862Z,26.80
2017-09-03T15:59:16.640Z,26.80
2017-09-03T16:01:44.432Z,27.00
2017-09-03T16:04:12.139Z,27.20
2017-09-03T16:06:39.849Z,27.20
2017-09-03T16:09:07.571Z,27.10
2017-09-03T16:11:35.283Z,26.90
2017-09-03T16:14:02.990Z,26.90
2017-09-03T16:16:30.787Z,26.80
2017-09-03T16:18:58.565Z,26.60
2017-09-03T16:21:26.327Z,26.60
2017-09-03T16:23:54.145Z,26.50
2017-09-03T16:26:21.864Z,26.40
2017-09-03T16:28:49.595Z,26.30
2017-09-03T16:31:17.376Z,26.30
2017-09-03T16:33:45.142Z,26.30
2017-09-03T16:36:12.904Z,26.20
2017-09-03T16:38:40.781Z,26.10
2017-09-03T16:41:08.555Z,26.00
2017-09-03T16:43:36.283Z,26.10
2017-09-03T16:46:04.060Z,26.00
2017-09-03T16:48:31.772Z,26.00
2017-09-03T16:50:59.555Z,25.80
2017-09-03T16:53:27.450Z,25.80
2017-09-03T16:55:55.239Z,25.80
2017-09-03T16:58:23.007Z,25.80
2017-09-03T17:00:50.850Z,25.80
2017-09-03T17:03:20.328Z,25.70
2017-09-03T17:05:48.183Z,25.80
2017-09-03T17:08:16.208Z,25.80
2017-09-03T17:10:44.216Z,25.80
2017-09-03T17:13:12.355Z,25.70
2017-09-03T17:15:40.218Z,25.70
2017-09-03T17:18:08.016Z,25.70
2017-09-03T17:20:35.808Z,25.70
2017-09-03T17:23:03.591Z,25.70
2017-09-03T17:25:31.312Z,25.70
2017-09-03T17:27:59.062Z,25.60
2017-09-03T17:30:27.709Z,25.60
2017-09-03T17:32:55.447Z,25.60
2017-09-03T17:35:39.858Z,25.60
2017-09-03T17:38:24.363Z,25.60
2017-09-03T17:40:52.151Z,25.50
2017-09-03T17:43:21.786Z,25.50
2017-09-03T17:45:51.015Z,25.50
2017-09-03T17:48:18.928Z,25.50
2017-09-03T17:50:46.720Z,25.40
2017-09-03T17:53:14.648Z,25.40
2017-09-03T17:55:42.429Z,25.30
2017-09-03T17:58:10.151Z,25.30
2017-09-03T18:00:37.987Z,25.30
2017-09-03T18:03:08.239Z,25.20
2017-09-03T18:05:36.069Z,25.10
2017-09-03T18:08:03.853Z,25.10
2017-09-03T18:10:31.568Z,25.10
2017-09-03T18:12:59.342Z,25.10
2017-09-03T18:15:27.071Z,25.10
2017-09-03T18:17:54.940Z,25.10
2017-09-03T18:20:23.700Z,25.10
2017-09-03T18:35:53.808Z,25.30
2017-09-03T18:38:21.782Z,25.20
2017-09-03T18:40:53.079Z,25.10
2017-09-03T18:43:20.865Z,25.00
2017-09-03T18:45:48.726Z,24.90
2017-09-03T18:48:16.781Z,24.90
2017-09-03T18:50:45.368Z,24.90
2017-09-03T18:53:23.132Z,24.90
2017-09-03T18:55:50.947Z,24.80
2017-09-03T18:58:29.372Z,24.70
2017-09-03T19:00:57.420Z,24.70
2017-09-03T19:03:28.830Z,24.70
2017-09-03T19:05:56.887Z,24.70
2017-09-03T19:08:24.938Z,24.60
2017-09-03T19:10:52.723Z,24.60
2017-09-03T19:13:20.507Z,24.60
2017-09-03T19:15:48.454Z,24.60
2017-09-03T19:18:16.558Z,24.60
2017-09-03T19:20:44.473Z,24.60
2017-09-03T19:23:12.311Z,24.60
2017-09-03T19:25:40.105Z,24.70
2017-09-03T19:28:07.953Z,24.60
2017-09-03T19:30:36.047Z,24.60
2017-09-03T19:33:03.847Z,24.70
2017-09-03T19:35:31.701Z,24.70
2017-09-03T19:38:01.967Z,24.80
2017-09-03T19:40:29.711Z,24.80
2017-09-03T19:42:57.629Z,24.80
2017-09-03T19:45:25.778Z,24.80
2017-09-03T19:47:53.519Z,24.80
2017-09-03T19:50:21.293Z,25.00
2017-09-03T19:52:49.075Z,25.10
2017-09-03T19:55:17.139Z,25.30
2017-09-03T19:57:45.113Z,25.40
2017-09-03T20:00:13.018Z,25.30
2017-09-03T20:02:41.337Z,25.30
2017-09-03T20:05:09.288Z,25.20
2017-09-03T20:07:37.067Z,24.90
2017-09-03T20:10:07.180Z,24.70
2017-09-03T20:12:37.453Z,24.90
2017-09-03T20:15:05.283Z,24.70
2017-09-03T20:17:33.133Z,24.50
2017-09-03T20:20:00.869Z,24.30
2017-09-03T20:22:28.623Z,24.20
2017-09-03T20:24:56.339Z,24.10
2017-09-03T20:27:24.063Z,24.00
2017-09-03T20:29:51.816Z,23.80
2017-09-03T20:32:19.577Z,23.80
2017-09-03T20:34:47.287Z,23.80
2017-09-03T20:37:15.046Z,23.80
2017-09-03T20:39:42.794Z,23.70
2017-09-03T20:42:10.607Z,23.70
2017-09-03T20:44:38.371Z,23.70
2017-09-03T20:47:06.201Z,23.80
2017-09-03T20:49:33.974Z,23.70
2017-09-03T20:52:01.760Z,23.70
2017-09-03T20:54:29.567Z,23.60
2017-09-03T20:56:57.315Z,23.50
2017-09-03T20:59:25.087Z,23.40
2017-09-03T21:01:53.105Z,23.30
2017-09-03T21:04:21.026Z,23.30
2017-09-03T21:06:49.521Z,23.20
2017-09-03T21:09:20.158Z,23.00
2017-09-03T21:11:47.955Z,22.90
2017-09-03T21:14:15.733Z,23.10
2017-09-03T21:16:44.328Z,23.10
2017-09-03T21:19:12.190Z,23.00
2017-09-03T21:21:39.911Z,22.90
2017-09-03T21:24:07.644Z,22.80
2017-09-03T21:26:35.525Z,22.90
2017-09-03T21:29:03.495Z,22.90
2017-09-03T21:31:31.295Z,23.00
2017-09-03T21:33:59.176Z,23.20
2017-09-03T21:36:26.910Z,23.40
2017-09-03T21:38:54.688Z,23.40
2017-09-03T21:41:22.558Z,23.30
2017-09-03T21:43:50.347Z,23.30
2017-09-03T21:46:18.066Z,23.10
2017-09-03T21:48:45.843Z,23.00
2017-09-03T21:51:13.647Z,22.90
2017-09-03T21:53:41.421Z,22.90
2017-09-03T21:56:09.158Z,22.80
2017-09-03T21:58:36.922Z,22.70
2017-09-03T22:01:04.658Z,22.70
2017-09-03T22:03:32.473Z,22.60
2017-09-03T22:06:00.297Z,22.60
2017-09-03T22:08:28.018Z,22.80
2017-09-03T22:10:55.891Z,22.80
2017-09-03T22:13:23.657Z,22.80
2017-09-03T22:15:51.438Z,22.70
2017-09-03T22:18:19.261Z,22.60
2017-09-03T22:20:47.031Z,22.50
2017-09-03T22:23:14.800Z,22.40
2017-09-03T22:25:42.587Z,22.40
2017-09-03T22:28:10.368Z,22.30
2017-09-03T22:30:38.074Z,22.30
2017-09-03T22:33:05.888Z,22.30
2017-09-03T22:35:33.615Z,22.30
2017-09-03T22:38:02.206Z,22.30
2017-09-03T22:40:29.972Z,22.30
2017-09-03T22:42:57.740Z,22.30
2017-09-03T22:45:25.503Z,22.30
2017-09-03T22:47:53.282Z,22.20
2017-09-03T22:50:21.022Z,22.20
2017-09-03T22:52:48.737Z,22.20
2017-09-03T22:55:16.451Z,22.20
2017-09-03T22:57:44.158Z,22.20
2017-09-03T23:00:12.230Z,22.30
2017-09-03T23:02:39.957Z,22.30
2017-09-03T23:05:07.724Z,22.30
2017-09-03T23:07:35.781Z,22.30
2017-09-03T23:10:03.594Z,22.40
2017-09-03T23:12:31.365Z,22.50
2017-09-03T23:14:59.072Z,22.70
2017-09-03T23:17:26.875Z,22.80
2017-09-03T23:19:54.620Z,22.60
2017-09-03T23:22:22.339Z,22.50
2017-09-03T23:24:50.116Z,22.30
2017-09-03T23:27:17.823Z,22.20
2017-09-03T23:29:45.589Z,22.00
2017-09-03T23:32:13.390Z,22.00
2017-09-03T23:34:41.114Z,22.00
2017-09-03T23:37:08.915Z,22.10
2017-09-03T23:39:36.664Z,22.10
2017-09-03T23:42:04.445Z,22.00
2017-09-03T23:44:33.122Z,21.90
2017-09-03T23:47:01.047Z,22.10
2017-09-03T23:49:28.828Z,22.00
2017-09-03T23:51:56.605Z,21.80
2017-09-03T23:54:24.330Z,21.80
2017-09-03T23:56:52.051Z,21.60
2017-09-03T23:59:20.655Z,21.70
